createdAt,value
2022-09-28T00:01:09.421Z,99390.53
2022-09-28T00:03:36.672Z,99390.53
2022-09-28T00:06:06.219Z,99387.66
2022-09-28T00:08:33.922Z,99392.81
2022-09-28T00:11:01.267Z,99393.22
2022-09-28T00:13:28.325Z,99388.47
2022-09-28T00:16:07.179Z,99387.03
2022-09-28T00:18:34.650Z,99386.81
2022-09-28T00:21:26.905Z,99387.66
2022-09-28T00:24:15.567Z,99385.44
2022-09-28T00:26:49.393Z,99377.16
2022-09-28T00:29:17.759Z,99383.13
2022-09-28T00:31:44.892Z,99383.31
2022-09-28T00:34:12.600Z,99368.38
2022-09-28T00:36:39.262Z,99376.50
2022-09-28T00:39:08.426Z,99375.84
2022-09-28T00:41:35.859Z,99371.31
2022-09-28T00:44:21.133Z,99377.31
2022-09-28T00:46:49.734Z,99372.16
2022-09-28T00:49:18.988Z,99368.50
2022-09-28T00:51:47.276Z,99366.38
2022-09-28T00:54:16.252Z,99357.06
2022-09-28T00:56:45.708Z,99355.00
2022-09-28T00:59:12.342Z,99361.41
2022-09-28T01:01:39.031Z,99357.44
2022-09-28T01:04:06.490Z,99355.97
2022-09-28T01:06:38.070Z,99354.59
2022-09-28T01:09:07.680Z,99357.84
2022-09-28T01:11:37.721Z,99361.13
2022-09-28T01:14:08.304Z,99353.28
2022-09-28T01:16:41.655Z,99355.56
2022-09-28T01:19:36.729Z,99351.41
2022-09-28T01:22:34.180Z,99353.28
2022-09-28T01:25:10.231Z,99348.94
2022-09-28T01:27:41.945Z,99343.16
2022-09-28T01:30:12.093Z,99346.47
2022-09-28T01:32:47.156Z,99349.16
2022-09-28T01:35:35.641Z,99349.78
2022-09-28T01:38:12.609Z,99350.81
2022-09-28T01:40:40.759Z,99350.13
2022-09-28T01:43:16.014Z,99350.97
2022-09-28T01:45:47.134Z,99343.38
2022-09-28T01:48:21.414Z,99345.41
2022-09-28T01:50:54.693Z,99346.47
2022-09-28T01:53:41.770Z,99349.38
2022-09-28T01:56:13.191Z,99348.34
2022-09-28T01:58:50.938Z,99333.00
2022-09-28T02:01:27.452Z,99343.75
2022-09-28T02:04:04.768Z,99344.59
2022-09-28T02:06:41.209Z,99334.22
2022-09-28T02:09:11.734Z,99331.13
2022-09-28T02:11:43.519Z,99332.16
2022-09-28T02:14:15.305Z,99335.84
2022-09-28T02:16:42.969Z,99331.13
2022-09-28T02:19:28.077Z,99329.47
2022-09-28T02:22:29.168Z,99333.59
2022-09-28T02:24:59.989Z,99328.63
2022-09-28T02:27:35.496Z,99325.31
2022-09-28T02:30:04.395Z,99328.84
2022-09-28T02:32:33.823Z,99319.13
2022-09-28T02:35:00.432Z,99325.69
2022-09-28T02:37:28.223Z,99315.78
2022-09-28T02:39:55.430Z,99310.88
2022-09-28T02:42:34.500Z,99312.53
2022-09-28T02:45:22.119Z,99312.53
2022-09-28T02:47:55.597Z,99315.84
2022-09-28T02:50:40.289Z,99312.94
2022-09-28T02:53:19.777Z,99305.72
2022-09-28T02:56:00.652Z,99299.78
2022-09-28T02:59:04.632Z,99300.63
2022-09-28T03:02:01.564Z,99307.38
2022-09-28T03:04:56.699Z,99310.91
2022-09-28T03:07:29.148Z,99303.31
2022-09-28T03:10:10.581Z,99308.47
2022-09-28T03:12:38.994Z,99310.53
2022-09-28T03:15:10.110Z,99300.63
2022-09-28T03:17:36.883Z,99295.25
2022-09-28T03:20:05.406Z,99294.41
2022-09-28T03:22:32.046Z,99301.25
2022-09-28T03:24:58.587Z,99294.00
2022-09-28T03:27:25.161Z,99295.88
2022-09-28T03:29:51.719Z,99294.84
2022-09-28T03:32:18.310Z,99289.69
2022-09-28T03:34:44.870Z,99289.28
2022-09-28T03:37:11.437Z,99297.53
2022-09-28T03:39:38.011Z,99282.84
2022-09-28T03:42:04.620Z,99278.94
2022-09-28T03:44:31.296Z,99273.78
2022-09-28T03:46:57.909Z,99273.38
2022-09-28T03:49:24.524Z,99261.38
2022-09-28T03:51:51.781Z,99264.25
2022-09-28T03:54:19.055Z,99268.41
2022-09-28T03:56:45.692Z,99262.16
2022-09-28T03:59:12.285Z,99255.97
2022-09-28T04:01:38.951Z,99255.13
2022-09-28T04:04:05.640Z,99258.66
2022-09-28T04:06:32.201Z,99255.34
2022-09-28T04:08:58.794Z,99263.19
2022-09-28T04:11:25.342Z,99261.13
2022-09-28T04:13:51.991Z,99252.41
2022-09-28T04:16:19.085Z,99251.97
2022-09-28T04:18:47.117Z,99247.66
2022-09-28T04:21:16.134Z,99253.22
2022-09-28T04:23:43.278Z,99250.13
2022-09-28T04:26:21.890Z,99250.94
2022-09-28T04:29:07.808Z,99243.53
2022-09-28T04:31:40.094Z,99246.22
2022-09-28T04:34:06.798Z,99249.72
2022-09-28T04:36:33.538Z,99252.59
2022-09-28T04:39:00.304Z,99257.56
2022-09-28T04:41:27.172Z,99252.75
2022-09-28T04:43:53.746Z,99249.22
2022-09-28T04:46:20.504Z,99256.31
2022-09-28T04:48:47.136Z,99251.75
2022-09-28T04:51:13.814Z,99252.75
2022-09-28T04:53:40.503Z,99256.31
2022-09-28T04:56:10.708Z,99264.88
2022-09-28T04:58:37.782Z,99264.88
2022-09-28T05:01:11.427Z,99266.53
2022-09-28T05:03:38.311Z,99271.91
2022-09-28T05:06:06.929Z,99281.00
2022-09-28T05:08:35.308Z,99281.00
2022-09-28T05:11:04.865Z,99276.66
2022-09-28T05:13:40.706Z,99287.78
2022-09-28T05:16:08.272Z,99278.31
2022-09-28T05:18:34.863Z,99281.41
2022-09-28T05:21:01.741Z,99284.69
2022-09-28T05:23:28.300Z,99284.06
2022-09-28T05:25:54.893Z,99276.03
2022-09-28T05:28:28.253Z,99283.25
2022-09-28T05:31:02.246Z,99281.19
2022-09-28T05:33:29.689Z,99284.69
2022-09-28T05:36:00.914Z,99277.25
2022-09-28T05:38:28.413Z,99274.78
2022-09-28T05:40:55.176Z,99267.72
2022-09-28T05:43:22.280Z,99265.28
2022-09-28T05:45:54.294Z,99263.63
2022-09-28T05:48:22.563Z,99260.34
2022-09-28T05:50:52.591Z,99260.75
2022-09-28T05:53:19.298Z,99261.34
2022-09-28T05:55:45.942Z,99253.94
2022-09-28T05:58:12.617Z,99256.22
2022-09-28T06:00:39.442Z,99248.16
2022-09-28T06:03:09.624Z,99240.22
2022-09-28T06:05:36.914Z,99242.84
2022-09-28T06:08:05.319Z,99234.25
2022-09-28T06:10:33.231Z,99239.22
2022-09-28T06:13:00.437Z,99243.22
2022-09-28T06:15:30.281Z,99238.06
2022-09-28T06:18:04.311Z,99242.19
2022-09-28T06:20:34.150Z,99238.06
2022-09-28T06:23:00.701Z,99226.06
2022-09-28T06:25:30.271Z,99228.75
2022-09-28T06:27:59.106Z,99220.28
2022-09-28T06:30:27.420Z,99212.00
2022-09-28T06:32:55.983Z,99220.06
2022-09-28T06:35:24.581Z,99207.66
2022-09-28T06:37:51.744Z,99211.16
2022-09-28T06:40:19.726Z,99220.69
2022-09-28T06:42:58.702Z,99214.88
2022-09-28T06:45:26.624Z,99220.25
2022-09-28T06:48:03.089Z,99220.25
2022-09-28T06:50:41.207Z,99213.22
2022-09-28T06:53:10.541Z,99217.13
2022-09-28T06:55:49.199Z,99217.72
2022-09-28T06:58:20.044Z,99211.94
2022-09-28T07:00:48.112Z,99200.56
2022-09-28T07:03:20.107Z,99208.56
2022-09-28T07:05:49.604Z,99206.72
2022-09-28T07:08:17.680Z,99215.59
2022-09-28T07:10:49.036Z,99218.94
2022-09-28T07:13:44.152Z,99223.66
2022-09-28T07:16:03.799Z,99221.38
2022-09-28T07:18:30.498Z,99212.09
2022-09-28T07:20:57.460Z,99223.25
2022-09-28T07:23:27.466Z,99213.94
2022-09-28T07:25:54.403Z,99222.00
2022-09-28T07:28:21.747Z,99215.38
2022-09-28T07:30:48.403Z,99217.47
2022-09-28T07:33:16.042Z,99228.84
2022-09-28T07:35:50.719Z,99220.13
2022-09-28T07:38:17.276Z,99223.66
2022-09-28T07:41:02.569Z,99221.63
2022-09-28T07:43:29.243Z,99217.25
2022-09-28T07:45:55.950Z,99223.03
2022-09-28T07:48:23.189Z,99227.78
2022-09-28T07:50:54.537Z,99218.91
2022-09-28T07:53:22.954Z,99231.91
2022-09-28T07:55:54.322Z,99229.03
2022-09-28T07:58:21.284Z,99238.34
2022-09-28T08:00:49.919Z,99231.72
2022-09-28T08:03:17.560Z,99229.25
2022-09-28T08:05:44.389Z,99237.31
2022-09-28T08:08:11.583Z,99235.88
2022-09-28T08:10:38.346Z,99235.47
2022-09-28T08:13:07.536Z,99238.16
2022-09-28T08:15:37.063Z,99245.84
2022-09-28T08:18:07.212Z,99249.72
2022-09-28T08:20:52.760Z,99243.72
2022-09-28T08:23:20.387Z,99247.69
2022-09-28T08:25:52.608Z,99252.19
2022-09-28T08:28:19.603Z,99249.09
2022-09-28T08:30:47.409Z,99249.06
2022-09-28T08:33:15.731Z,99247.38
2022-09-28T08:35:42.604Z,99247.56
2022-09-28T08:38:09.714Z,99255.63
2022-09-28T08:41:05.959Z,99255.81
2022-09-28T08:43:52.060Z,99252.72
2022-09-28T08:46:26.361Z,99254.41
2022-09-28T08:49:24.093Z,99251.13
2022-09-28T08:52:05.624Z,99260.19
2022-09-28T08:55:01.451Z,99254.47
2022-09-28T08:57:38.770Z,99247.84
2022-09-28T09:00:11.004Z,99249.31
2022-09-28T09:02:39.889Z,99248.25
2022-09-28T09:05:14.799Z,99242.88
2022-09-28T09:08:36.805Z,99237.09
2022-09-28T09:11:31.314Z,99238.84
2022-09-28T09:14:21.793Z,99232.78
2022-09-28T09:17:22.411Z,99237.00
2022-09-28T09:20:04.644Z,99226.00
2022-09-28T09:22:49.424Z,99235.22
2022-09-28T09:25:38.782Z,99231.38
2022-09-28T09:28:53.183Z,99226.25
2022-09-28T09:31:33.418Z,99233.59
2022-09-28T09:34:15.371Z,99237.22
2022-09-28T09:36:41.994Z,99229.66
2022-09-28T09:39:21.652Z,99238.63
2022-09-28T09:42:14.626Z,99238.94
2022-09-28T09:44:56.609Z,99238.94
2022-09-28T09:47:38.668Z,99237.75
2022-09-28T09:50:15.081Z,99232.41
2022-09-28T09:52:55.762Z,99227.25
2022-09-28T09:55:30.196Z,99236.53
2022-09-28T09:58:09.998Z,99243.00
2022-09-28T10:00:42.882Z,99234.75
2022-09-28T10:03:31.351Z,99237.63
2022-09-28T10:06:06.964Z,99234.72
2022-09-28T10:08:44.118Z,99239.75
2022-09-28T10:11:15.513Z,99235.63
2022-09-28T10:13:42.853Z,99237.03
2022-09-28T10:16:09.521Z,99227.47
2022-09-28T10:18:36.730Z,99240.47
2022-09-28T10:21:03.523Z,99231.78
2022-09-28T10:23:34.086Z,99241.03
2022-09-28T10:26:06.444Z,99235.44
2022-09-28T10:29:14.689Z,99232.53
2022-09-28T10:31:48.441Z,99238.31
2022-09-28T10:34:18.832Z,99232.94
2022-09-28T10:37:01.428Z,99230.88
2022-09-28T10:39:37.407Z,99237.84
2022-09-28T10:42:09.745Z,99239.75
2022-09-28T10:44:56.075Z,99242.00
2022-09-28T10:47:26.375Z,99232.09
2022-09-28T10:49:54.973Z,99242.00
2022-09-28T10:52:36.695Z,99233.94
2022-09-28T10:55:25.238Z,99241.97
2022-09-28T10:57:52.996Z,99244.47
2022-09-28T11:00:36.650Z,99238.47
2022-09-28T11:03:03.643Z,99240.31
2022-09-28T11:05:31.330Z,99248.78
2022-09-28T11:08:00.871Z,99242.75
2022-09-28T11:10:30.433Z,99249.38
2022-09-28T11:12:58.001Z,99242.13
2022-09-28T11:15:32.127Z,99244.81
2022-09-28T11:18:31.465Z,99242.13
2022-09-28T11:21:12.248Z,99236.56
2022-09-28T11:23:42.142Z,99238.88
2022-09-28T11:26:09.532Z,99238.84
2022-09-28T11:28:37.558Z,99244.19
2022-09-28T11:31:07.989Z,99238.00
2022-09-28T11:33:45.141Z,99235.94
2022-09-28T11:36:14.561Z,99231.59
2022-09-28T11:38:47.457Z,99234.06
2022-09-28T11:41:35.164Z,99241.47
2022-09-28T11:44:36.343Z,99229.06
2022-09-28T11:47:22.708Z,99231.53
2022-09-28T11:50:01.988Z,99231.13
2022-09-28T11:52:28.575Z,99233.03
2022-09-28T11:55:01.268Z,99234.91
2022-09-28T11:57:37.586Z,99233.19
2022-09-28T12:00:11.851Z,99233.72
2022-09-28T12:02:59.590Z,99225.44
2022-09-28T12:05:30.363Z,99233.66
2022-09-28T12:08:19.949Z,99238.47
2022-09-28T12:11:09.804Z,99235.19
2022-09-28T12:13:44.648Z,99235.25
2022-09-28T12:16:53.054Z,99238.97
2022-09-28T12:19:30.933Z,99235.88
2022-09-28T12:22:05.217Z,99244.13
2022-09-28T12:24:38.788Z,99241.03
2022-09-28T12:27:41.179Z,99254.44
2022-09-28T12:30:27.685Z,99248.06
2022-09-28T12:33:07.014Z,99245.16
2022-09-28T12:35:44.916Z,99246.75
2022-09-28T12:38:46.001Z,99253.97
2022-09-28T12:41:33.541Z,99240.63
2022-09-28T12:44:13.187Z,99254.47
2022-09-28T12:46:57.984Z,99248.06
2022-09-28T12:50:36.956Z,99250.56
2022-09-28T12:52:58.116Z,99255.91
2022-09-28T12:55:56.549Z,99249.09
2022-09-28T12:58:41.199Z,99260.47
2022-09-28T13:01:44.248Z,99251.34
2022-09-28T13:04:24.708Z,99253.13
2022-09-28T13:07:06.328Z,99248.25
2022-09-28T13:09:58.490Z,99255.91
2022-09-28T13:13:18.274Z,99253.00
2022-09-28T13:15:47.458Z,99249.69
2022-09-28T13:18:29.216Z,99257.13
2022-09-28T13:21:09.791Z,99251.44
2022-09-28T13:23:45.725Z,99248.13
2022-09-28T13:26:23.668Z,99251.81
2022-09-28T13:28:54.727Z,99251.81
2022-09-28T13:31:33.196Z,99258.41
2022-09-28T13:34:03.520Z,99258.28
2022-09-28T13:36:32.558Z,99254.16
2022-09-28T13:39:00.960Z,99259.59
2022-09-28T13:41:35.468Z,99247.84
2022-09-28T13:44:11.153Z,99261.25
2022-09-28T13:47:01.584Z,99258.81
2022-09-28T13:49:52.906Z,99263.13
2022-09-28T13:52:49.801Z,99260.25
2022-09-28T13:55:32.971Z,99257.81
2022-09-28T13:58:06.597Z,99255.81
2022-09-28T14:00:50.557Z,99255.41
2022-09-28T14:03:42.911Z,99263.06
2022-09-28T14:06:25.533Z,99268.41
2022-09-28T14:09:09.337Z,99264.53
2022-09-28T14:11:35.845Z,99266.81
2022-09-28T14:14:08.356Z,99268.88
2022-09-28T14:16:36.963Z,99261.06
2022-09-28T14:19:07.784Z,99269.56
2022-09-28T14:21:47.906Z,99270.00
2022-09-28T14:24:36.589Z,99274.53
2022-09-28T14:27:37.223Z,99269.97
2022-09-28T14:30:12.750Z,99270.78
2022-09-28T14:32:55.055Z,99274.88
2022-09-28T14:35:41.695Z,99275.06
2022-09-28T14:38:39.660Z,99286.03
2022-09-28T14:41:27.970Z,99291.19
2022-09-28T14:43:59.405Z,99287.84
2022-09-28T14:46:27.149Z,99292.84
2022-09-28T14:48:55.304Z,99286.19
2022-09-28T14:51:24.682Z,99302.13
2022-09-28T14:53:52.776Z,99300.69
2022-09-28T14:56:20.582Z,99297.53
2022-09-28T14:58:54.363Z,99299.81
2022-09-28T15:01:24.666Z,99308.69
2022-09-28T15:04:02.149Z,99306.59
2022-09-28T15:06:44.475Z,99307.47
2022-09-28T15:09:31.935Z,99311.84
2022-09-28T15:12:12.182Z,99311.22
2022-09-28T15:14:48.912Z,99318.19
2022-09-28T15:17:39.766Z,99312.44
2022-09-28T15:20:29.937Z,99312.19
2022-09-28T15:22:58.712Z,99321.72
2022-09-28T15:25:28.216Z,99321.28
2022-09-28T15:28:11.560Z,99330.16
2022-09-28T15:30:38.291Z,99323.91
2022-09-28T15:33:23.371Z,99334.22
2022-09-28T15:36:04.693Z,99330.03
2022-09-28T15:38:35.086Z,99333.13
2022-09-28T15:41:07.136Z,99329.41
2022-09-28T15:43:34.726Z,99331.88
2022-09-28T15:46:18.212Z,99333.25
2022-09-28T15:48:59.557Z,99332.25
2022-09-28T15:51:27.504Z,99333.53
2022-09-28T15:54:09.318Z,99335.94
2022-09-28T15:57:02.462Z,99331.97
2022-09-28T15:59:39.791Z,99330.09
2022-09-28T16:02:15.033Z,99336.09
2022-09-28T16:04:56.166Z,99335.25
2022-09-28T16:07:56.329Z,99337.34
2022-09-28T16:10:33.654Z,99345.16
2022-09-28T16:13:29.398Z,99349.22
2022-09-28T16:16:00.245Z,99350.88
2022-09-28T16:18:29.531Z,99353.56
2022-09-28T16:21:18.890Z,99360.34
2022-09-28T16:23:51.776Z,99358.91
2022-09-28T16:26:29.888Z,99361.97
2022-09-28T16:28:56.493Z,99364.47
2022-09-28T16:31:29.235Z,99367.34
2022-09-28T16:34:20.290Z,99374.81
2022-09-28T16:36:48.980Z,99383.25
2022-09-28T16:39:17.354Z,99381.00
2022-09-28T16:41:52.420Z,99386.16
2022-09-28T16:44:24.223Z,99379.97
2022-09-28T16:46:53.906Z,99375.63
2022-09-28T16:49:20.973Z,99384.78
2022-09-28T16:51:48.237Z,99382.44
2022-09-28T16:54:37.954Z,99378.75
2022-09-28T16:57:06.208Z,99388.22
2022-09-28T16:59:33.226Z,99385.13
2022-09-28T17:01:59.970Z,99390.91
2022-09-28T17:04:26.821Z,99386.56
2022-09-28T17:06:55.273Z,99394.81
2022-09-28T17:09:22.568Z,99393.16
2022-09-28T17:11:56.293Z,99395.25
2022-09-28T17:14:24.352Z,99401.38
2022-09-28T17:17:12.634Z,99399.91
2022-09-28T17:19:40.295Z,99397.16
2022-09-28T17:22:08.107Z,99401.91
2022-09-28T17:24:35.189Z,99403.28
2022-09-28T17:27:03.297Z,99401.91
2022-09-28T17:29:30.076Z,99415.75
2022-09-28T17:31:56.713Z,99413.66
2022-09-28T17:34:23.785Z,99416.19
2022-09-28T17:36:50.347Z,99417.41
2022-09-28T17:39:19.116Z,99413.25
2022-09-28T17:41:46.083Z,99414.72
2022-09-28T17:44:16.387Z,99411.84
2022-09-28T17:46:49.318Z,99417.84
2022-09-28T17:49:17.013Z,99424.50
2022-09-28T17:51:43.922Z,99432.28
2022-09-28T17:54:11.082Z,99419.25
2022-09-28T17:56:37.714Z,99436.38
2022-09-28T17:59:07.434Z,99433.94
2022-09-28T18:01:38.052Z,99436.00
2022-09-28T18:04:06.734Z,99437.78
2022-09-28T18:06:33.938Z,99446.19
2022-09-28T18:09:03.073Z,99444.50
2022-09-28T18:11:31.374Z,99450.88
2022-09-28T18:13:58.032Z,99448.19
2022-09-28T18:16:24.949Z,99454.81
2022-09-28T18:18:51.567Z,99452.34
2022-09-28T18:21:18.227Z,99450.00
2022-09-28T18:23:44.768Z,99458.72
2022-09-28T18:26:15.395Z,99463.50
2022-09-28T18:28:41.995Z,99467.59
2022-09-28T18:31:10.618Z,99463.88
2022-09-28T18:33:52.925Z,99471.09
2022-09-28T18:36:19.500Z,99471.75
2022-09-28T18:38:46.070Z,99465.34
2022-09-28T18:41:15.891Z,99471.31
2022-09-28T18:43:44.265Z,99482.84
2022-09-28T18:46:11.854Z,99473.50
2022-09-28T18:48:40.524Z,99477.22
2022-09-28T18:51:12.471Z,99476.56
2022-09-28T18:53:40.118Z,99480.91
2022-09-28T18:56:13.186Z,99483.59
2022-09-28T18:58:41.307Z,99480.47
2022-09-28T19:01:30.884Z,99479.25
2022-09-28T19:04:03.193Z,99481.00
2022-09-28T19:06:31.785Z,99490.91
2022-09-28T19:08:58.843Z,99488.22
2022-09-28T19:11:25.815Z,99488.56
2022-09-28T19:13:54.713Z,99485.25
2022-09-28T19:16:28.658Z,99487.94
2022-09-28T19:18:58.781Z,99498.84
2022-09-28T19:21:26.765Z,99497.00
2022-09-28T19:23:55.428Z,99497.28
2022-09-28T19:26:25.422Z,99493.31
2022-09-28T19:28:52.007Z,99497.63
2022-09-28T19:31:19.139Z,99499.78
2022-09-28T19:33:46.370Z,99503.63
2022-09-28T19:36:24.597Z,99512.34
2022-09-28T19:38:52.714Z,99499.50
2022-09-28T19:41:43.334Z,99511.63
2022-09-28T19:44:19.388Z,99509.13
2022-09-28T19:46:46.121Z,99513.84
2022-09-28T19:49:18.395Z,99507.09
2022-09-28T19:52:11.035Z,99509.97
2022-09-28T19:54:36.646Z,99518.41
2022-09-28T19:57:08.555Z,99516.16
2022-09-28T19:59:37.203Z,99521.72
2022-09-28T20:02:05.533Z,99515.31
2022-09-28T20:04:32.136Z,99516.78
2022-09-28T20:06:59.015Z,99515.13
2022-09-28T20:09:25.614Z,99522.53
2022-09-28T20:11:53.093Z,99521.91
2022-09-28T20:14:21.455Z,99532.44
2022-09-28T20:16:50.169Z,99532.25
2022-09-28T20:19:19.049Z,99535.94
2022-09-28T20:21:48.062Z,99540.66
2022-09-28T20:24:16.173Z,99541.84
2022-09-28T20:26:43.517Z,99546.66
2022-09-28T20:29:10.660Z,99539.84
2022-09-28T20:31:37.850Z,99550.91
2022-09-28T20:34:05.888Z,99546.94
2022-09-28T20:36:33.233Z,99545.09
2022-09-28T20:39:01.829Z,99543.81
2022-09-28T20:41:35.631Z,99542.41
2022-09-28T20:44:05.599Z,99550.28
2022-09-28T20:46:34.193Z,99545.56
2022-09-28T20:49:00.988Z,99544.53
2022-09-28T20:51:27.565Z,99551.56
2022-09-28T20:53:56.733Z,99549.06
2022-09-28T20:56:40.107Z,99556.47
2022-09-28T20:59:12.233Z,99554.63
2022-09-28T21:01:39.341Z,99557.22
2022-09-28T21:04:08.265Z,99561.47
2022-09-28T21:06:37.304Z,99560.00
2022-09-28T21:09:05.686Z,99564.91
2022-09-28T21:11:34.253Z,99561.00
2022-09-28T21:14:02.738Z,99566.19
2022-09-28T21:16:31.726Z,99570.78
2022-09-28T21:18:59.036Z,99569.59
2022-09-28T21:21:26.356Z,99568.78
2022-09-28T21:23:54.312Z,99574.59
2022-09-28T21:26:26.043Z,99572.56
2022-09-28T21:28:54.374Z,99579.97
2022-09-28T21:31:27.737Z,99572.00
2022-09-28T21:33:56.365Z,99580.22
2022-09-28T21:36:22.906Z,99582.53
2022-09-28T21:38:49.477Z,99586.22
2022-09-28T21:41:16.343Z,99597.78
2022-09-28T21:43:43.114Z,99583.19
2022-09-28T21:46:09.934Z,99595.78
2022-09-28T21:48:36.559Z,99595.78
2022-09-28T21:51:06.397Z,99587.88
2022-09-28T21:53:35.783Z,99586.03
2022-09-28T21:56:04.176Z,99588.00
2022-09-28T21:58:33.591Z,99599.34
2022-09-28T22:01:09.405Z,99593.16
2022-09-28T22:03:36.692Z,99590.09
2022-09-28T22:06:04.243Z,99597.13
2022-09-28T22:08:31.249Z,99600.84
2022-09-28T22:11:03.648Z,99602.50
2022-09-28T22:13:32.044Z,99615.06
2022-09-28T22:15:58.978Z,99608.69
2022-09-28T22:18:27.169Z,99619.41
2022-09-28T22:21:11.822Z,99614.44
2022-09-28T22:23:39.483Z,99610.91
2022-09-28T22:26:11.673Z,99604.72
2022-09-28T22:28:39.958Z,99621.00
2022-09-28T22:31:06.742Z,99609.63
2022-09-28T22:33:34.277Z,99612.31
2022-09-28T22:36:00.984Z,99619.22
2022-09-28T22:38:28.112Z,99614.88
2022-09-28T22:40:56.514Z,99621.72
2022-09-28T22:43:25.082Z,99620.88
2022-09-28T22:46:13.437Z,99621.56
2022-09-28T22:48:40.270Z,99620.34
2022-09-28T22:51:07.352Z,99624.06
2022-09-28T22:53:35.287Z,99627.75
2022-09-28T22:56:05.596Z,99630.44
2022-09-28T22:58:36.969Z,99631.25
2022-09-28T23:01:11.915Z,99642.19
2022-09-28T23:03:40.491Z,99641.34
2022-09-28T23:06:08.201Z,99639.50
2022-09-28T23:08:35.465Z,99631.44
2022-09-28T23:11:02.134Z,99629.22
2022-09-28T23:13:30.946Z,99633.94
2022-09-28T23:15:58.224Z,99635.31
2022-09-28T23:18:27.201Z,99634.13
2022-09-28T23:20:59.224Z,99633.31
2022-09-28T23:23:26.437Z,99637.34
2022-09-28T23:25:53.583Z,99634.66
2022-09-28T23:28:22.592Z,99636.50
2022-09-28T23:30:49.665Z,99630.13
2022-09-28T23:33:17.998Z,99635.03
2022-09-28T23:35:44.849Z,99627.38
2022-09-28T23:38:13.671Z,99631.53
2022-09-28T23:40:43.475Z,99636.50
2022-09-28T23:43:10.089Z,99641.69
2022-09-28T23:45:36.659Z,99647.88
2022-09-28T23:48:03.352Z,99644.03
2022-09-28T23:50:29.899Z,99643.16
2022-09-28T23:52:56.436Z,99647.06
2022-09-28T23:55:23.003Z,99642.53
2022-09-28T23:57:49.568Z,99639.19
